Time;durP1;ratioP1;P1;durP2;ratioP2;P2;SDS_P1;SDS_P2;PMS_P1;PMS_P2;Temp;Humidity;BMP_temperature;BMP_pressure;BME280_temperature;BME280_humidity;BME280_pressure;Samples;Min_cycle;Max_cycle;Signal;HPM_P1;HPM_P2
2023/01/03 00:00:22;;;;;;;6.47;3.03;;;;;;;;;;5076031;28;20082;-68
2023/01/03 00:02:48;;;;;;;8.77;3.15;;;;;;;;;;5099726;28;20031;-67
2023/01/03 00:05:14;;;;;;;9.10;3.03;;;;;;;;;;5102607;28;20445;-68
2023/01/03 00:07:40;;;;;;;6.70;3.30;;;;;;;;;;5075267;28;20451;-68
2023/01/03 00:10:08;;;;;;;9.55;3.38;;;;;;;;;;5103097;28;20135;-67
2023/01/03 00:12:35;;;;;;;7.35;3.30;;;3.70;99.90;;;;;;5079577;28;20047;-68
2023/01/03 00:15:02;;;;;;;9.95;2.85;;;;;;;;;;5092467;28;20040;-68
2023/01/03 00:17:28;;;;;;;8.10;3.03;;;;;;;;;;5090177;28;20043;-68
2023/01/03 00:19:54;;;;;;;7.80;3.85;;;;;;;;;;5084424;28;20394;-68
2023/01/03 00:22:20;;;;;;;7.72;3.17;;;;;;;;;;5095384;28;20043;-67
2023/01/03 00:24:47;;;;;;;6.65;3.72;;;;;;;;;;5071955;28;20044;-68
2023/01/03 00:27:14;;;;;;;7.93;3.17;;;3.60;99.90;;;;;;5086212;28;20103;-68
2023/01/03 00:29:40;;;;;;;5.78;3.08;;;;;;;;;;5105211;28;20043;-67
2023/01/03 00:32:07;;;;;;;5.70;3.25;;;;;;;;;;5075881;28;20056;-68
2023/01/03 00:34:33;;;;;;;4.72;2.55;;;;;;;;;;5084547;28;20047;-68
2023/01/03 00:37:00;;;;;;;7.78;3.30;;;;;;;;;;5081936;28;20039;-68
2023/01/03 00:39:26;;;;;;;9.50;3.85;;;;;;;;;;5098956;28;20429;-68
2023/01/03 00:41:52;;;;;;;7.53;3.00;;;;;;;;;;5095002;28;20044;-68
2023/01/03 00:44:18;;;;;;;6.43;3.25;;;;;;;;;;5100648;28;20036;-68
2023/01/03 00:46:44;;;;;;;12.68;3.33;;;;;;;;;;5099818;28;20360;-67
2023/01/03 00:49:10;;;;;;;7.72;3.13;;;;;;;;;;5088945;28;20068;-68
2023/01/03 00:51:38;;;;;;;5.78;2.92;;;;;;;;;;5075946;28;20542;-68
2023/01/03 00:54:05;;;;;;;9.98;3.08;;;3.50;99.90;;;;;;5097372;28;20047;-68
2023/01/03 00:56:32;;;;;;;8.10;2.97;;;;;;;;;;5086276;28;20036;-68
2023/01/03 00:58:58;;;;;;;7.15;3.13;;;;;;;;;;5089279;28;20089;-68
2023/01/03 01:01:30;;;;;;;10.35;2.90;;;3.40;99.90;;;;;;5075064;28;20040;-68
2023/01/03 01:03:58;;;;;;;9.45;2.70;;;;;;;;;;5076270;28;20036;-68
2023/01/03 01:06:29;;;;;;;7.10;2.55;;;3.50;99.90;;;;;;5094244;28;20447;-67
2023/01/03 01:08:56;;;;;;;6.47;2.58;;;;;;;;;;5075101;28;20054;-68
2023/01/03 01:11:22;;;;;;;6.63;2.50;;;;;;;;;;5075688;28;20048;-68
2023/01/03 01:13:49;;;;;;;9.93;2.83;;;;;;;;;;5075717;28;20521;-68
2023/01/03 01:16:34;;;;;;;13.18;2.72;;;3.20;99.90;;;;;;5075317;28;20040;-67
2023/01/03 01:19:00;;;;;;;8.18;2.85;;;;;;;;;;5074734;28;20079;-67
2023/01/03 01:21:27;;;;;;;10.10;3.53;;;;;;;;;;5093520;28;20044;-67
2023/01/03 01:23:54;;;;;;;6.40;2.65;;;;;;;;;;5075488;28;20127;-67
2023/01/03 01:26:22;;;;;;;8.85;2.80;;;3.40;99.90;;;;;;5093340;28;20044;-68
2023/01/03 01:28:48;;;;;;;7.68;3.08;;;;;;;;;;5084776;28;20058;-68
2023/01/03 01:31:16;;;;;;;8.45;3.40;;;;;;;;;;5079210;28;20095;-68
2023/01/03 01:33:42;;;;;;;6.28;3.10;;;;;;;;;;5057924;28;20466;-68
2023/01/03 01:36:14;;;;;;;6.78;3.17;;;;;;;;;;5085093;28;20048;-67
2023/01/03 01:38:40;;;;;;;8.30;3.70;;;;;;;;;;5089919;28;20067;-68
2023/01/03 01:41:06;;;;;;;7.90;3.83;;;;;;;;;;5071363;28;20525;-67
2023/01/03 01:46:25;;;;;;;6.57;3.10;;;;;;;;;;5071836;28;20048;-67
2023/01/03 01:49:02;;;;;;;8.30;3.95;;;3.40;99.90;;;;;;5077311;28;20043;-67
2023/01/03 01:51:30;;;;;;;7.80;3.72;;;;;;;;;;5078088;28;20047;-67
2023/01/03 01:53:59;;;;;;;13.48;4.30;;;3.50;99.90;;;;;;5086089;28;20452;-67
2023/01/03 01:56:28;;;;;;;7.97;3.10;;;;;;;;;;5072382;28;20039;-67
2023/01/03 01:58:54;;;;;;;8.18;3.50;;;;;;;;;;5085047;28;20052;-67
2023/01/03 02:01:21;;;;;;;4.72;3.42;;;;;;;;;;5070820;28;20040;-67
2023/01/03 02:03:54;;;;;;;5.82;3.53;;;;;;;;;;5074195;28;20078;-67
2023/01/03 02:06:20;;;;;;;11.18;4.10;;;;;;;;;;5081566;28;20044;-67
2023/01/03 02:08:46;;;;;;;8.23;4.57;;;;;;;;;;5085490;28;20044;-66
2023/01/03 02:11:12;;;;;;;11.77;3.92;;;;;;;;;;5084036;28;20055;-67
2023/01/03 02:13:54;;;;;;;11.30;4.03;;;;;;;;;;5070854;28;20086;-67
2023/01/03 02:16:19;;;;;;;9.90;4.88;;;;;;;;;;5077099;28;20047;-67
2023/01/03 02:18:45;;;;;;;6.93;4.28;;;;;;;;;;5071449;28;20050;-67
2023/01/03 02:21:27;;;;;;;11.07;4.78;;;;;;;;;;5093244;28;20068;-66
2023/01/03 02:23:52;;;;;;;8.93;4.88;;;;;;;;;;5084933;28;20051;-67
2023/01/03 02:26:32;;;;;;;8.10;4.18;;;;;;;;;;5089616;28;20055;-67
2023/01/03 02:29:17;;;;;;;16.75;5.05;;;3.20;99.90;;;;;;5070469;28;20504;-67
2023/01/03 02:31:46;;;;;;;12.13;5.75;;;;;;;;;;5071579;28;20064;-67
2023/01/03 02:34:20;;;;;;;15.05;6.43;;;;;;;;;;5072281;28;20059;-67
2023/01/03 02:37:04;;;;;;;12.88;5.75;;;;;;;;;;5085040;28;20060;-67
2023/01/03 02:39:37;;;;;;;12.85;6.55;;;;;;;;;;5073672;28;20040;-67
2023/01/03 02:45:17;;;;;;;17.30;7.75;;;;;;;;;;5069930;28;20047;-67
2023/01/03 02:47:47;;;;;;;13.88;7.22;;;;;;;;;;5088127;28;20043;-67
2023/01/03 02:50:14;;;;;;;14.38;7.10;;;3.40;99.90;;;;;;5070236;28;20055;-67
2023/01/03 02:52:41;;;;;;;14.93;7.18;;;;;;;;;;5082475;28;20479;-67
2023/01/03 02:55:16;;;;;;;14.45;7.82;;;;;;;;;;5072422;28;20657;-67
2023/01/03 02:57:45;;;;;;;13.55;7.68;;;;;;;;;;5070019;28;20055;-67
2023/01/03 03:00:14;;;;;;;14.40;7.53;;;3.10;99.90;;;;;;5069733;28;20043;-67
2023/01/03 03:02:43;;;;;;;16.05;7.97;;;;;;;;;;5080547;28;20572;-67
2023/01/03 03:05:11;;;;;;;16.75;8.68;;;;;;;;;;5074129;28;20050;-67
2023/01/03 03:07:39;;;;;;;18.98;8.30;;;;;;;;;;5070682;28;20513;-67
2023/01/03 03:15:46;;;;;;;12.27;7.35;;;;;;;;;;5071911;28;20091;-67
2023/01/03 03:18:15;;;;;;;14.98;7.97;;;;;;;;;;5089766;28;20044;-67
2023/01/03 03:26:17;;;;;;;15.63;8.63;;;;;;;;;;5078952;28;20079;-67
2023/01/03 03:28:46;;;;;;;18.92;9.05;;;;;;;;;;5072445;28;20052;-67
2023/01/03 03:31:45;;;;;;;15.63;8.35;;;;;;;;;;5058130;28;20061;-67
2023/01/03 03:34:25;;;;;;;18.60;10.38;;;;;;;;;;5042411;28;20125;-68
2023/01/03 03:37:03;;;;;;;19.50;9.30;;;;;;;;;;5086054;28;20051;-67
2023/01/03 03:45:28;;;;;;;15.02;9.10;;;;;;;;;;5087898;28;20052;-67
2023/01/03 03:47:58;;;;;;;16.80;9.23;;;;;;;;;;5043343;28;20097;-67
2023/01/03 03:50:48;;;;;;;16.73;9.73;;;;;;;;;;5105676;28;20051;-67
2023/01/03 03:53:16;;;;;;;17.98;9.40;;;;;;;;;;5087958;28;20493;-67
2023/01/03 03:55:55;;;;;;;17.77;10.27;;;;;;;;;;5074035;28;20493;-67
2023/01/03 03:58:25;;;;;;;18.92;9.90;;;;;;;;;;5073950;28;20490;-67
2023/01/03 04:00:51;;;;;;;19.73;10.82;;;;;;;;;;5091431;28;20497;-67
2023/01/03 04:03:18;;;;;;;19.75;11.25;;;;;;;;;;5071356;28;20136;-67
2023/01/03 04:05:47;;;;;;;20.33;9.70;;;;;;;;;;5091497;28;20044;-67
2023/01/03 04:08:13;;;;;;;17.38;9.98;;;;;;;;;;5091742;28;20051;-67
2023/01/03 04:10:39;;;;;;;19.00;9.70;;;;;;;;;;5079288;28;20096;-67
2023/01/03 04:13:05;;;;;;;23.10;10.82;;;;;;;;;;5081979;28;20448;-67
2023/01/03 04:15:31;;;;;;;19.00;10.90;;;;;;;;;;5073719;28;20097;-67
2023/01/03 04:18:00;;;;;;;22.52;10.77;;;;;;;;;;5073722;28;20043;-67
2023/01/03 04:20:26;;;;;;;23.50;11.77;;;;;;;;;;5091857;28;20413;-67
2023/01/03 04:22:53;;;;;;;20.98;11.07;;;;;;;;;;5081730;28;20494;-68
2023/01/03 04:25:19;;;;;;;21.95;11.05;;;;;;;;;;5078802;28;20087;-67
2023/01/03 04:27:45;;;;;;;26.17;11.52;;;;;;;;;;5080676;28;20081;-67
2023/01/03 04:30:11;;;;;;;22.08;11.18;;;;;;;;;;5081366;28;20051;-67
2023/01/03 04:32:37;;;;;;;24.13;11.20;;;;;;;;;;5095812;28;20596;-67
2023/01/03 04:35:03;;;;;;;20.50;11.15;;;;;;;;;;5083470;28;20448;-67
2023/01/03 04:37:29;;;;;;;24.48;12.18;;;;;;;;;;5106003;28;20036;-68
2023/01/03 04:39:55;;;;;;;23.52;12.82;;;;;;;;;;5073325;28;20094;-68
2023/01/03 04:45:06;;;;;;;29.30;13.70;;;;;;;;;;5087076;28;20047;-67
2023/01/03 04:47:32;;;;;;;27.85;12.50;;;;;;;;;;5091500;28;20470;-67
2023/01/03 04:49:58;;;;;;;23.65;12.13;;;;;;;;;;5092205;28;20526;-68
2023/01/03 04:52:24;;;;;;;26.98;12.52;;;;;;;;;;5103491;28;20040;-67
2023/01/03 04:54:50;;;;;;;24.67;13.55;;;;;;;;;;5074503;28;20436;-67
2023/01/03 04:57:16;;;;;;;24.83;12.60;;;;;;;;;;5074508;28;20031;-68
2023/01/03 04:59:42;;;;;;;22.50;12.70;;;;;;;;;;5106781;28;20126;-67
2023/01/03 05:02:08;;;;;;;21.55;12.23;;;;;;;;;;5080176;28;20497;-68
2023/01/03 05:04:34;;;;;;;28.23;12.95;;;;;;;;;;5100873;28;20119;-67
2023/01/03 05:07:00;;;;;;;28.52;14.10;;;;;;;;;;5061015;28;20568;-68
2023/01/03 05:09:26;;;;;;;27.45;14.32;;;;;;;;;;5084823;28;20056;-67
2023/01/03 05:11:52;;;;;;;30.95;17.33;;;;;;;;;;5108987;28;20724;-68
2023/01/03 05:14:18;;;;;;;34.03;17.80;;;;;;;;;;5086058;28;20040;-67
2023/01/03 05:16:44;;;;;;;36.72;19.00;;;;;;;;;;5075326;28;20113;-68
2023/01/03 05:19:10;;;;;;;38.15;19.23;;;;;;;;;;5073676;28;20040;-68
2023/01/03 05:27:05;;;;;;;34.35;17.33;;;;;;;;;;5072683;28;20079;-68
2023/01/03 05:29:32;;;;;;;38.40;18.27;;;;;;;;;;5099500;28;20473;-68
2023/01/03 05:31:58;;;;;;;38.05;19.60;;;;;;;;;;5072184;28;20052;-67
2023/01/03 05:34:24;;;;;;;37.38;18.98;;;;;;;;;;5072085;28;20405;-68
2023/01/03 05:36:50;;;;;;;39.10;17.77;;;;;;;;;;5071533;28;20849;-65
2023/01/03 05:39:16;;;;;;;32.83;17.52;;;;;;;;;;5060930;28;20119;-68
2023/01/03 05:42:00;;;;;;;33.75;17.13;;;;;;;;;;5100918;28;20039;-67
2023/01/03 05:44:30;;;;;;;33.97;17.20;;;;;;;;;;5099516;28;20081;-68
2023/01/03 05:46:57;;;;;;;31.75;16.15;;;;;;;;;;5068328;28;20516;-69
2023/01/03 05:49:23;;;;;;;31.90;17.17;;;;;;;;;;5087991;28;20044;-67
2023/01/03 05:51:49;;;;;;;31.27;17.00;;;;;;;;;;5086302;28;20039;-67
2023/01/03 05:54:16;;;;;;;30.48;16.52;;;;;;;;;;5086873;28;20048;-68
2023/01/03 05:56:42;;;;;;;30.20;16.83;;;;;;;;;;5086082;28;20044;-65
2023/01/03 05:59:08;;;;;;;35.03;17.40;;;;;;;;;;5088744;28;20045;-68
2023/01/03 06:01:34;;;;;;;28.52;16.75;;;;;;;;;;5089773;28;20059;-67
2023/01/03 06:04:00;;;;;;;33.88;17.33;;;;;;;;;;5054087;28;20055;-68
2023/01/03 06:06:26;;;;;;;32.97;17.95;;;;;;;;;;5066561;28;20048;-68
2023/01/03 06:08:53;;;;;;;31.60;16.85;;;;;;;;;;5080924;28;20058;-66
2023/01/03 06:11:19;;;;;;;29.60;16.67;;;;;;;;;;5088024;28;20561;-67
2023/01/03 06:13:45;;;;;;;31.25;17.58;;;;;;;;;;5070186;28;20485;-68
2023/01/03 06:18:58;;;;;;;29.05;16.27;;;;;;;;;;5070526;28;20048;-68
2023/01/03 06:21:24;;;;;;;31.02;16.20;;;;;;;;;;5069812;28;20044;-69
2023/01/03 06:23:50;;;;;;;31.08;15.15;;;2.90;99.90;;;;;;5080629;28;20032;-67
2023/01/03 06:26:17;;;;;;;34.40;16.55;;;;;;;;;;5087911;28;20036;-68
2023/01/03 06:28:43;;;;;;;30.40;16.42;;;;;;;;;;5086432;28;20082;-69
2023/01/03 06:31:09;;;;;;;29.42;15.82;;;;;;;;;;5086118;28;20032;-67
2023/01/03 06:33:35;;;;;;;30.40;16.77;;;;;;;;;;5088312;28;20101;-68
2023/01/03 06:36:03;;;;;;;28.98;15.13;;;;;;;;;;5088001;28;20387;-74
2023/01/03 06:38:29;;;;;;;29.92;16.10;;;;;;;;;;5084075;28;20368;-69
2023/01/03 06:40:55;;;;;;;30.52;15.98;;;;;;;;;;5084900;28;20044;-69
2023/01/03 06:43:21;;;;;;;28.38;14.63;;;;;;;;;;5087109;28;20474;-72
2023/01/03 06:54:02;;;;;;;32.35;15.82;;;;;;;;;;5089112;28;20333;-71
2023/01/03 06:56:28;;;;;;;28.27;14.60;;;;;;;;;;5101321;28;20541;-68
2023/01/03 06:58:54;;;;;;;28.88;15.40;;;;;;;;;;5079290;28;20044;-68
2023/01/03 07:01:21;;;;;;;30.25;15.50;;;;;;;;;;5082031;28;20039;-68
2023/01/03 07:03:47;;;;;;;33.05;16.17;;;;;;;;;;5079351;28;20118;-70
2023/01/03 07:06:13;;;;;;;28.50;14.30;;;;;;;;;;5087946;28;20055;-68
2023/01/03 07:08:39;;;;;;;26.60;15.18;;;;;;;;;;5090401;28;20035;-67
2023/01/03 07:11:05;;;;;;;29.38;14.77;;;;;;;;;;5103115;28;20493;-67
2023/01/03 07:16:16;;;;;;;27.80;15.88;;;;;;;;;;5083500;28;20047;-69
2023/01/03 07:18:42;;;;;;;31.70;15.70;;;;;;;;;;5082399;28;20035;-70
2023/01/03 07:21:08;;;;;;;34.38;17.27;;;;;;;;;;5085148;28;20446;-69
2023/01/03 07:23:34;;;;;;;32.25;16.48;;;;;;;;;;5087556;28;20571;-68
2023/01/03 07:26:00;;;;;;;32.83;17.45;;;;;;;;;;5087190;28;20043;-67
2023/01/03 07:28:26;;;;;;;33.70;17.90;;;;;;;;;;5083820;28;20044;-67
2023/01/03 07:30:52;;;;;;;30.75;17.77;;;;;;;;;;5072606;28;20048;-68
2023/01/03 07:33:18;;;;;;;34.83;18.80;;;;;;;;;;5090909;28;20040;-68
2023/01/03 07:35:45;;;;;;;41.05;19.17;;;;;;;;;;5086690;28;20058;-67
2023/01/03 07:38:12;;;;;;;32.65;17.98;;;;;;;;;;5091125;28;20044;-66
2023/01/03 07:40:38;;;;;;;48.22;17.58;;;;;;;;;;5077377;28;20150;-68
2023/01/03 07:45:49;;;;;;;67.33;18.53;;;;;;;;;;5098930;28;20043;-67
2023/01/03 07:48:15;;;;;;;85.38;17.60;;;;;;;;;;5077986;28;20096;-67
2023/01/03 07:50:41;;;;;;;57.80;15.73;;;;;;;;;;5085048;28;20052;-65
2023/01/03 07:53:07;;;;;;;44.38;14.05;;;;;;;;;;5102691;28;20047;-66
2023/01/03 07:55:34;;;;;;;47.40;14.02;;;;;;;;;;5086810;28;20127;-66
2023/01/03 07:58:00;;;;;;;46.92;15.23;;;;;;;;;;5081423;28;20058;-66
2023/01/03 08:00:26;;;;;;;54.83;14.50;;;;;;;;;;5085042;28;20163;-66
2023/01/03 08:02:55;;;;;;;67.80;15.02;;;;;;;;;;5102567;28;20050;-67
2023/01/03 08:05:21;;;;;;;52.13;14.77;;;;;;;;;;5084431;28;20051;-67
2023/01/03 08:07:48;;;;;;;53.60;15.70;;;;;;;;;;5092695;28;20757;-67
2023/01/03 08:13:18;;;;;;;;;;;;;;;;;;5086242;28;20047;-66
2023/01/03 08:15:51;;;;;;;106.63;18.75;;;;;;;;;;5085759;28;19967;-68
2023/01/03 08:18:22;;;;;;;109.85;20.83;;;;;;;;;;5084375;28;20044;-68
2023/01/03 08:20:48;;;;;;;97.28;20.35;;;;;;;;;;5089393;28;20047;-66
2023/01/03 08:23:14;;;;;;;89.63;20.90;;;;;;;;;;5094373;28;20035;-67
2023/01/03 08:25:40;;;;;;;98.72;20.73;;;;;;;;;;5103617;28;20050;-67
2023/01/03 08:28:07;;;;;;;106.43;21.63;;;;;;;;;;5087034;28;20080;-64
2023/01/03 08:30:35;;;;;;;156.23;26.85;;;;;;;;;;5087220;28;20048;-66
2023/01/03 08:33:02;;;;;;;192.18;31.30;;;;;;;;;;5065182;28;20142;-67
2023/01/03 08:35:30;;;;;;;149.27;25.30;;;;;;;;;;5097872;28;20074;-68
2023/01/03 08:37:59;;;;;;;164.07;28.95;;;2.00;99.90;;;;;;5079796;28;20046;-68
2023/01/03 08:40:25;;;;;;;190.82;31.40;;;;;;;;;;5105767;28;20039;-65
2023/01/03 08:42:51;;;;;;;247.00;36.65;;;;;;;;;;5092522;28;20050;-66
2023/01/03 08:45:18;;;;;;;182.23;30.13;;;;;;;;;;5078892;28;20621;-66
2023/01/03 08:47:45;;;;;;;167.55;28.92;;;;;;;;;;5065519;28;20136;-66
2023/01/03 08:50:11;;;;;;;186.40;33.92;;;;;;;;;;5107275;28;20046;-64
2023/01/03 08:52:37;;;;;;;218.55;36.30;;;;;;;;;;5090269;28;20039;-65
2023/01/03 08:55:04;;;;;;;215.02;34.00;;;;;;;;;;5084034;28;20048;-67
2023/01/03 08:57:30;;;;;;;239.32;37.28;;;;;;;;;;5091340;28;20502;-67
2023/01/03 08:59:56;;;;;;;248.85;37.35;;;;;;;;;;5103629;28;20031;-65
2023/01/03 09:02:22;;;;;;;227.32;36.85;;;;;;;;;;5071105;28;20082;-66
2023/01/03 09:04:48;;;;;;;235.48;36.67;;;;;;;;;;5082765;28;20078;-64
2023/01/03 09:07:14;;;;;;;271.00;39.10;;;;;;;;;;5089102;28;20043;-69
2023/01/03 09:09:40;;;;;;;227.43;36.90;;;2.80;99.90;;;;;;5065235;28;20583;-67
2023/01/03 09:12:06;;;;;;;223.43;39.13;;;;;;;;;;5090287;28;20044;-66
2023/01/03 09:14:32;;;;;;;209.30;37.58;;;;;;;;;;5088948;28;20044;-66
2023/01/03 09:16:58;;;;;;;167.10;35.20;;;;;;;;;;5086151;28;20122;-66
2023/01/03 09:19:23;;;;;;;223.52;37.58;;;;;;;;;;5089001;28;20085;-66
2023/01/03 09:21:49;;;;;;;218.05;36.70;;;;;;;;;;5088978;28;20139;-66
2023/01/03 09:24:15;;;;;;;243.55;41.03;;;;;;;;;;5088991;28;20393;-66
2023/01/03 09:26:41;;;;;;;197.55;39.20;;;;;;;;;;5086217;28;20125;-65
2023/01/03 09:29:07;;;;;;;208.45;40.10;;;;;;;;;;5088812;28;20051;-66
2023/01/03 09:31:33;;;;;;;265.83;43.08;;;;;;;;;;5089131;28;20060;-66
2023/01/03 09:34:02;;;;;;;269.45;46.00;;;;;;;;;;5086352;28;20044;-66
2023/01/03 09:36:28;;;;;;;235.13;43.42;;;;;;;;;;5086171;28;20048;-66
2023/01/03 09:38:54;;;;;;;195.55;39.75;;;3.60;99.90;;;;;;5086017;28;20520;-66
2023/01/03 09:41:24;;;;;;;261.95;46.70;;;;;;;;;;5086742;28;20032;-66
2023/01/03 09:43:56;;;;;;;273.48;47.15;;;3.50;99.90;;;;;;5080102;28;20444;-66
2023/01/03 09:46:23;;;;;;;254.63;48.33;;;;;;;;;;5086173;28;20151;-66
2023/01/03 09:48:50;;;;;;;210.32;41.03;;;;;;;;;;5091344;28;20043;-66
2023/01/03 10:06:39;;;;;;;153.27;43.60;;;4.20;99.90;;;;;;5017740;28;20053;-65
2023/01/03 10:09:22;;;;;;;149.15;42.00;;;;;;;;;;5009340;28;20049;-65
2023/01/03 10:11:54;;;;;;;153.73;46.60;;;;;;;;;;5041724;28;20467;-66
2023/01/03 10:14:27;;;;;;;162.05;44.53;;;;;;;;;;5090635;28;20043;-66
2023/01/03 10:16:53;;;;;;;153.95;47.97;;;;;;;;;;5090159;28;20062;-65
2023/01/03 10:19:28;;;;;;;147.93;45.88;;;;;;;;;;5090205;28;20047;-66
2023/01/03 10:21:57;;;;;;;164.35;47.47;;;;;;;;;;5084216;28;20052;-66
2023/01/03 10:24:25;;;;;;;168.25;47.72;;;;;;;;;;5090210;28;20066;-65
2023/01/03 10:27:11;;;;;;;159.13;47.28;;;4.80;99.90;;;;;;5108379;28;20047;-66
2023/01/03 10:29:37;;;;;;;163.13;48.03;;;;;;;;;;5065436;28;20054;-66
2023/01/03 10:32:45;;;;;;;163.15;48.45;;;4.90;99.90;;;;;;5089640;28;20075;-66
2023/01/03 10:35:23;;;;;;;151.32;47.65;;;5.30;99.90;;;;;;5073231;28;20083;-66
2023/01/03 10:37:53;;;;;;;159.32;51.78;;;;;;;;;;5107638;28;20032;-66
2023/01/03 10:40:20;;;;;;;164.88;48.83;;;;;;;;;;5089590;28;20057;-66
2023/01/03 10:42:49;;;;;;;138.68;46.35;;;5.20;99.90;;;;;;5089269;28;20060;-66
2023/01/03 10:45:19;;;;;;;142.90;46.03;;;;;;;;;;5094236;28;20109;-66
2023/01/03 10:47:57;;;;;;;120.25;41.88;;;;;;;;;;5108039;28;20746;-66
2023/01/03 10:50:23;;;;;;;127.28;41.83;;;;;;;;;;5074159;28;20105;-66
2023/01/03 10:52:55;;;;;;;127.97;43.25;;;;;;;;;;5065636;28;20482;-66
2023/01/03 10:55:24;;;;;;;113.47;37.70;;;5.60;99.90;;;;;;5093950;28;20147;-66
2023/01/03 10:58:12;;;;;;;114.95;37.47;;;;;;;;;;5108229;28;20477;-66
2023/01/03 11:00:38;;;;;;;106.57;40.78;;;;;;;;;;5108351;28;20031;-66
2023/01/03 11:03:22;;;;;;;99.25;38.28;;;5.80;99.90;;;;;;5089729;28;20055;-66
2023/01/03 11:06:09;;;;;;;100.50;38.63;;;;;;;;;;5083217;28;20119;-67
2023/01/03 11:08:44;;;;;;;92.38;35.17;;;;;;;;;;5089494;28;20606;-67
2023/01/03 11:11:29;;;;;;;93.15;33.88;;;;;;;;;;5089544;28;20497;-67
2023/01/03 11:14:04;;;;;;;102.00;37.53;;;;;;;;;;5107336;28;20115;-66
2023/01/03 11:16:31;;;;;;;93.63;38.63;;;;;;;;;;5107515;28;20046;-67
2023/01/03 11:18:59;;;;;;;102.07;38.88;;;;;;;;;;5089391;28;20096;-66
2023/01/03 11:21:28;;;;;;;81.45;33.38;;;;;;;;;;5100546;28;20058;-66
2023/01/03 11:24:03;;;;;;;93.25;37.17;;;;;;;;;;5107570;28;20069;-67
2023/01/03 11:26:47;;;;;;;83.43;35.80;;;;;;;;;;5107516;28;20417;-66
2023/01/03 11:29:22;;;;;;;92.47;36.38;;;;;;;;;;5107219;28;20046;-66
2023/01/03 11:31:48;;;;;;;;;;;;;;;;;;5086179;28;20527;-66
2023/01/03 11:34:17;;;;;;;83.05;33.83;;;;;;;;;;5085293;28;19919;-66
2023/01/03 11:36:49;;;;;;;88.97;35.17;;;;;;;;;;5085381;28;20086;-66
2023/01/03 11:39:38;;;;;;;93.07;34.65;;;5.90;99.90;;;;;;5086805;28;20043;-67
2023/01/03 11:42:04;;;;;;;76.68;33.90;;;;;;;;;;5073035;28;20727;-67
2023/01/03 11:44:53;;;;;;;89.93;32.72;;;;;;;;;;5078923;28;20048;-67
2023/01/03 11:47:29;;;;;;;81.45;31.40;;;;;;;;;;5074779;28;20615;-67
2023/01/03 11:50:03;;;;;;;79.00;32.53;;;;;;;;;;5069180;28;20497;-67
2023/01/03 11:52:37;;;;;;;74.47;31.90;;;6.30;99.90;;;;;;5069135;28;20079;-68
2023/01/03 11:55:22;;;;;;;78.50;32.17;;;;;;;;;;5068795;28;20054;-67
2023/01/03 11:57:48;;;;;;;69.87;29.33;;;;;;;;;;5069002;28;20411;-67
2023/01/03 12:00:36;;;;;;;68.60;31.77;;;;;;;;;;5068984;28;20079;-67
2023/01/03 12:03:31;;;;;;;68.47;29.88;;;6.40;99.90;;;;;;5083492;28;20050;-67
2023/01/03 12:06:07;;;;;;;67.97;29.05;;;;;;;;;;5058149;28;20372;-69
2023/01/03 12:08:50;;;;;;;68.60;28.02;;;;;;;;;;5070454;28;20151;-67
2023/01/03 12:11:23;;;;;;;67.32;27.48;;;;;;;;;;5081332;28;20105;-67
2023/01/03 12:13:57;;;;;;;61.63;26.70;;;;;;;;;;5072383;28;20120;-67
2023/01/03 12:16:33;;;;;;;58.30;26.65;;;;;;;;;;5074277;28;20413;-66
2023/01/03 12:19:05;;;;;;;;;;;6.50;99.90;;;;;;5061884;28;20472;-67
2023/01/03 12:21:43;;;;;;;59.70;24.05;;;;;;;;;;5067929;28;19924;-66
2023/01/03 12:24:15;;;;;;;61.05;26.40;;;;;;;;;;5081236;28;20051;-68
2023/01/03 12:26:42;;;;;;;62.40;27.27;;;;;;;;;;4933328;28;20378;-68
2023/01/03 12:29:11;;;;;;;55.97;24.98;;;;;;;;;;4805632;28;20571;-66
2023/01/03 12:31:41;;;;;;;67.80;27.45;;;;;;;;;;4551786;28;21076;-68
2023/01/03 12:34:36;;;;;;;58.65;25.75;;;6.50;99.90;;;;;;5050161;28;20053;-65
2023/01/03 12:37:45;;;;;;;60.80;26.05;;;6.60;99.90;;;;;;5064501;28;20441;-65
2023/01/03 12:40:20;;;;;;;56.25;24.70;;;;;;;;;;5027911;28;20565;-64
2023/01/03 12:42:46;;;;;;;63.17;26.60;;;;;;;;;;5060434;28;20048;-65
2023/01/03 12:45:21;;;;;;;56.92;24.27;;;6.70;99.90;;;;;;5064606;28;20043;-65
2023/01/03 12:47:54;;;;;;;52.38;23.55;;;;;;;;;;5059719;28;20045;-67
2023/01/03 12:50:37;;;;;;;56.47;24.98;;;;;;;;;;5065105;28;20045;-66
2023/01/03 12:53:13;;;;;;;55.80;24.27;;;6.70;99.90;;;;;;5065007;28;20442;-65
2023/01/03 12:55:50;;;;;;;46.40;21.40;;;6.90;99.90;;;;;;5061226;28;20344;-67
2023/01/03 12:58:34;;;;;;;58.10;24.08;;;;;;;;;;5062810;28;20047;-67
2023/01/03 13:01:07;;;;;;;48.90;21.77;;;;;;;;;;5063283;28;20045;-68
2023/01/03 13:03:47;;;;;;;50.08;22.00;;;7.10;99.90;;;;;;5059203;28;20061;-66
2023/01/03 13:06:16;;;;;;;52.28;21.77;;;;;;;;;;5059879;28;20048;-65
2023/01/03 13:08:46;;;;;;;47.88;21.85;;;;;;;;;;5062680;28;20038;-66
2023/01/03 13:11:21;;;;;;;46.50;20.95;;;;;;;;;;5059332;28;20511;-67
2023/01/03 13:13:47;;;;;;;;;;;;;;;;;;5061260;28;20052;-65
2023/01/03 13:16:32;;;;;;;41.58;19.13;;;;;;;;;;5059624;28;20362;-67
2023/01/03 13:19:18;;;;;;;47.17;20.60;;;;;;;;;;5055577;28;20064;-65
2023/01/03 13:21:50;;;;;;;50.83;19.02;;;;;;;;;;5060014;28;20123;-67
2023/01/03 13:24:35;;;;;;;43.08;19.70;;;;;;;;;;5062159;28;20040;-67
2023/01/03 13:27:13;;;;;;;39.43;18.97;;;;;;;;;;5060051;28;20056;-65
2023/01/03 13:29:43;;;;;;;46.13;19.80;;;;;;;;;;5057969;28;20915;-66
2023/01/03 13:32:14;;;;;;;38.38;18.80;;;;;;;;;;5067738;28;20097;-68
2023/01/03 13:34:40;;;;;;;42.05;18.40;;;;;;;;;;5081975;28;20621;-66
2023/01/03 13:37:06;;;;;;;42.72;18.92;;;7.40;99.90;;;;;;5081240;28;20040;-65
2023/01/03 13:39:47;;;;;;;38.08;18.45;;;;;;;;;;5077439;28;20427;-65
2023/01/03 13:42:33;;;;;;;43.70;19.70;;;;;;;;;;5072965;28;20391;-66
2023/01/03 13:45:14;;;;;;;40.22;19.42;;;;;;;;;;5065631;28;20067;-67
2023/01/03 13:47:40;;;;;;;38.08;18.65;;;;;;;;;;5080450;28;20123;-67
2023/01/03 13:50:23;;;;;;;44.25;20.10;;;7.20;99.90;;;;;;5078786;28;20063;-65
2023/01/03 13:53:03;;;;;;;38.28;18.13;;;;;;;;;;5064181;28;20088;-68
2023/01/03 13:55:36;;;;;;;37.90;19.52;;;;;;;;;;5080096;28;20047;-68
2023/01/03 13:58:03;;;;;;;43.15;20.08;;;;;;;;;;5083766;28;20040;-65
2023/01/03 14:00:29;;;;;;;48.13;20.55;;;;;;;;;;5075973;28;20147;-66
2023/01/03 14:03:05;;;;;;;42.58;19.42;;;7.50;99.90;;;;;;5082948;28;20031;-65
2023/01/03 14:05:31;;;;;;;43.92;20.15;;;;;;;;;;5079041;28;20074;-68
2023/01/03 14:08:06;;;;;;;41.45;18.50;;;;;;;;;;5072829;28;20471;-68
2023/01/03 14:10:50;;;;;;;34.97;16.80;;;;;;;;;;5082143;28;20043;-68
2023/01/03 14:13:19;;;;;;;36.87;19.33;;;;;;;;;;5076074;28;20052;-65
2023/01/03 14:15:46;;;;;;;38.55;19.15;;;;;;;;;;5076692;28;20701;-70
2023/01/03 14:18:27;;;;;;;35.88;18.90;;;;;;;;;;5073130;28;20534;-67
2023/01/03 14:20:54;;;;;;;35.58;18.40;;;;;;;;;;5076440;28;20088;-66
2023/01/03 14:23:22;;;;;;;35.92;18.02;;;;;;;;;;5083196;28;20494;-67
2023/01/03 14:25:48;;;;;;;38.88;17.30;;;;;;;;;;5080220;28;20513;-68
2023/01/03 14:28:22;;;;;;;34.38;17.33;;;;;;;;;;5078192;28;20529;-68
2023/01/03 14:30:59;;;;;;;33.63;16.95;;;;;;;;;;5081560;28;20036;-67
2023/01/03 14:33:30;;;;;;;34.63;18.65;;;;;;;;;;5084107;28;20146;-66
2023/01/03 14:36:04;;;;;;;32.20;16.13;;;;;;;;;;5091416;28;20061;-67
2023/01/03 14:38:31;;;;;;;35.45;17.30;;;;;;;;;;5099586;28;20051;-67
2023/01/03 14:40:58;;;;;;;39.08;18.98;;;;;;;;;;5085621;28;20039;-65
2023/01/03 14:43:27;;;;;;;32.35;16.35;;;;;;;;;;5104696;28;20047;-65
2023/01/03 14:45:54;;;;;;;36.42;17.88;;;;;;;;;;5082352;28;20043;-65
2023/01/03 14:48:21;;;;;;;34.00;17.40;;;;;;;;;;5102057;28;20046;-66
2023/01/03 14:50:48;;;;;;;29.65;15.93;;;;;;;;;;5078303;28;20156;-67
2023/01/03 14:53:14;;;;;;;31.95;17.38;;;;;;;;;;5089577;28;20069;-66
2023/01/03 14:55:40;;;;;;;28.80;16.10;;;;;;;;;;5073268;28;20493;-65
2023/01/03 14:58:21;;;;;;;31.52;16.70;;;;;;;;;;5061072;28;20489;-64
2023/01/03 15:00:48;;;;;;;37.15;17.25;;;;;;;;;;5076601;28;20599;-64
2023/01/03 15:03:14;;;;;;;30.55;16.67;;;;;;;;;;5052794;28;20521;-63
2023/01/03 15:05:40;;;;;;;38.00;16.52;;;;;;;;;;5063942;28;20090;-63
2023/01/03 15:08:07;;;;;;;32.33;15.77;;;;;;;;;;5065778;28;20048;-64
2023/01/03 15:10:52;;;;;;;37.05;17.33;;;;;;;;;;5076940;28;20058;-65
2023/01/03 15:13:25;;;;;;;38.38;16.42;;;;;;;;;;5081311;28;20180;-64
2023/01/03 15:15:55;;;;;;;31.42;17.70;;;;;;;;;;5053317;28;20159;-64
2023/01/03 15:18:23;;;;;;;37.53;16.80;;;;;;;;;;5086066;28;20079;-65
2023/01/03 15:20:50;;;;;;;28.77;16.15;;;;;;;;;;5069926;28;20039;-65
2023/01/03 15:23:25;;;;;;;32.10;16.15;;;;;;;;;;5087651;28;20797;-64
2023/01/03 15:25:51;;;;;;;35.88;16.88;;;;;;;;;;5085264;28;20502;-64
2023/01/03 15:28:44;;;;;;;25.35;14.63;;;;;;;;;;5087560;28;20058;-65
2023/01/03 15:31:29;;;;;;;23.58;13.90;;;;;;;;;;5066995;28;20075;-66